Time;durP1;ratioP1;P1;durP2;ratioP2;P2;SDS_P1;SDS_P2;PMS_P1;PMS_P2;Temp;Humidity;BMP_temperature;BMP_pressure;BME280_temperature;BME280_humidity;BME280_pressure;Samples;Min_cycle;Max_cycle;Signal;HPM_P1;HPM_P2
2021/09/16 00:01:25;;;;;;;3.47;0.93;;;;;;;21.56;53.49;101562.81;4740100;30;20055;-92
2021/09/16 00:03:50;;;;;;;2.47;0.73;;;;;;;21.56;53.45;101563.66;4722774;30;20185;-91
2021/09/16 00:06:16;;;;;;;1.63;0.77;;;;;;;21.59;53.32;101561.88;4709712;30;20032;-88
2021/09/16 00:08:41;;;;;;;1.67;0.77;;;;;;;21.58;53.46;101563.66;4722383;30;20115;-89
2021/09/16 00:11:06;;;;;;;1.77;0.80;;;;;;;21.58;53.30;101574.13;4716974;30;20496;-87
2021/09/16 00:13:32;;;;;;;1.83;0.82;;;;;;;21.59;53.35;101575.00;4737484;30;20040;-90
2021/09/16 00:15:57;;;;;;;2.28;1.00;;;;;;;21.57;53.50;101565.38;4730095;30;20445;-88
2021/09/16 00:18:23;;;;;;;2.42;0.80;;;;;;;21.60;53.29;101568.84;4740319;30;20040;-91
2021/09/16 00:20:49;;;;;;;2.33;0.85;;;;;;;21.58;53.33;101568.88;4754845;30;20122;-89
2021/09/16 00:23:15;;;;;;;2.63;0.70;;;;;;;21.59;53.45;101569.75;4784080;30;20023;-86
2021/09/16 00:25:40;;;;;;;1.50;0.90;;;;;;;21.59;53.60;101561.88;4739416;30;20058;-86
2021/09/16 00:28:06;;;;;;;1.75;0.70;;;;;;;21.60;53.62;101566.22;4725802;30;20403;-77
2021/09/16 00:30:32;;;;;;;3.38;0.93;;;;;;;21.60;53.42;101561.88;4738586;30;20516;-77
2021/09/16 00:32:58;;;;;;;1.90;0.80;;;;;;;21.61;53.59;101560.97;4754543;30;20044;-79
2021/09/16 00:35:24;;;;;;;2.28;0.88;;;;;;;21.60;53.78;101559.25;4728247;30;20076;-78
2021/09/16 00:37:51;;;;;;;1.60;0.70;;;;;;;21.61;53.48;101566.22;4776382;30;20074;-80
2021/09/16 00:40:18;;;;;;;1.45;0.80;;;;;;;21.60;53.79;101563.59;4762405;30;20040;-80
2021/09/16 00:42:44;;;;;;;2.58;0.85;;;;;;;21.61;53.54;101567.97;4748322;30;20089;-79
2021/09/16 00:45:12;;;;;;;1.27;0.70;;;;;;;21.60;53.54;101558.38;4762028;30;20036;-79
2021/09/16 00:47:55;;;;;;;2.65;0.93;;;;;;;21.59;53.52;101565.38;4762431;30;20115;-79
2021/09/16 00:50:22;;;;;;;;;;;;;;;21.60;53.47;101564.50;4763567;30;20059;-79
2021/09/16 00:52:48;;;;;;;2.10;0.70;;;;;;;21.59;53.83;101556.66;4765555;30;19913;-79
2021/09/16 00:55:14;;;;;;;2.47;1.02;;;;;;;21.60;53.43;101572.34;4784223;30;20059;-77
2021/09/16 00:57:45;;;;;;;1.67;0.70;;;;;;;21.60;53.37;101569.72;4767523;30;20028;-79
2021/09/16 01:00:12;;;;;;;0.93;0.60;;;;;;;21.57;53.96;101562.75;4784178;30;20114;-79
2021/09/16 01:02:41;;;;;;;2.17;0.80;;;;;;;21.57;53.64;101567.16;4758220;30;20135;-79
2021/09/16 01:05:08;;;;;;;3.13;0.80;;;;;;;21.58;53.37;101574.13;4739157;30;20044;-79
2021/09/16 01:07:36;;;;;;;3.40;0.95;;;;;;;21.57;53.66;101577.63;4746027;30;20488;-79
2021/09/16 01:10:05;;;;;;;2.08;0.70;;;;;;;21.57;53.63;101577.63;4744413;30;20526;-80
2021/09/16 01:12:31;;;;;;;1.40;0.80;;;;;;;21.56;53.54;101578.53;4757876;30;20484;-77
2021/09/16 01:14:56;;;;;;;2.15;0.88;;;;;;;21.57;53.68;101577.63;4745607;30;20040;-79
2021/09/16 01:17:23;;;;;;;2.13;0.82;;;;;;;21.58;53.69;101576.75;4748843;30;20066;-80
2021/09/16 01:19:49;;;;;;;3.33;0.80;;;;;;;21.57;53.46;101575.00;4749889;30;20093;-79
2021/09/16 01:22:19;;;;;;;4.03;0.90;;;;;;;21.56;53.75;101571.53;4765115;30;20088;-79
2021/09/16 01:24:45;;;;;;;4.65;0.77;;;;;;;21.56;53.33;101574.13;4765504;30;20035;-79
2021/09/16 01:27:11;;;;;;;1.00;0.60;;;;;;;21.58;53.50;101574.13;4732851;30;20411;-79
2021/09/16 01:29:36;;;;;;;2.30;0.80;;;;;;;21.57;53.48;101569.75;4747828;30;20091;-80
2021/09/16 01:32:05;;;;;;;2.63;0.80;;;;;;;21.56;53.63;101566.28;4763441;30;20031;-79
2021/09/16 01:34:32;;;;;;;1.92;0.75;;;;;;;21.57;53.51;101561.91;4779284;30;20042;-79
2021/09/16 01:36:58;;;;;;;2.75;0.88;;;;;;;21.54;53.85;101567.19;4781293;30;20028;-79
2021/09/16 01:39:25;;;;;;;2.63;0.90;;;;;;;21.55;53.74;101567.16;4782048;30;20040;-80
2021/09/16 01:41:50;;;;;;;2.63;0.77;;;;;;;21.55;53.80;101564.53;4765827;30;20454;-79
2021/09/16 01:44:16;;;;;;;3.10;0.85;;;;;;;21.57;53.55;101564.53;4781115;30;20120;-80
2021/09/16 01:46:41;;;;;;;2.17;0.80;;;;;;;21.57;53.60;101569.75;4736880;30;20042;-79
2021/09/16 01:49:07;;;;;;;3.28;0.60;;;;;;;21.57;53.50;101570.63;4759176;30;20035;-79
2021/09/16 01:51:35;;;;;;;1.73;0.55;;;;;;;21.59;53.38;101573.22;4728014;30;20063;-79
2021/09/16 01:54:04;;;;;;;1.38;0.60;;;;;;;21.57;53.75;101564.53;4744315;30;20039;-78
2021/09/16 01:56:38;;;;;;;1.75;0.70;;;;;;;21.56;53.60;101563.66;4745063;30;20082;-80
2021/09/16 01:59:03;;;;;;;;;;;;;;;21.57;53.92;101565.38;4777113;30;20560;-77
2021/09/16 02:01:29;;;;;;;2.97;0.80;;;;;;;21.60;53.52;101564.50;4759250;30;19938;-79
2021/09/16 02:03:59;;;;;;;2.88;0.70;;;;;;;21.56;53.93;101573.28;4748764;30;20039;-80
2021/09/16 02:06:25;;;;;;;1.70;0.75;;;;;;;21.57;53.72;101577.63;4750639;30;20396;-79
2021/09/16 02:08:50;;;;;;;2.22;0.90;;;;;;;21.57;53.60;101577.63;4779870;30;20047;-80
2021/09/16 02:11:16;;;;;;;2.85;0.73;;;;;;;21.56;53.65;101582.00;4734053;30;20036;-79
2021/09/16 02:13:41;;;;;;;1.95;0.80;;;;;;;21.57;53.68;101586.34;4781236;30;20032;-80
2021/09/16 02:16:07;;;;;;;3.33;0.70;;;;;;;21.57;53.90;101583.72;4765604;30;20027;-79
2021/09/16 02:18:33;;;;;;;1.52;0.80;;;;;;;21.56;53.77;101582.00;4751991;30;20150;-78
2021/09/16 02:20:58;;;;;;;2.20;0.80;;;;;;;21.57;54.06;101582.84;4779523;30;20115;-80
2021/09/16 02:23:24;;;;;;;2.35;0.60;;;;;;;21.55;53.78;101585.50;4746855;30;20101;-79
2021/09/16 02:25:52;;;;;;;1.55;0.65;;;;;;;21.56;53.91;101589.84;4732492;30;20051;-79
2021/09/16 02:28:19;;;;;;;1.90;0.60;;;;;;;21.55;53.76;101588.09;4761487;30;20071;-80
2021/09/16 02:30:45;;;;;;;2.08;0.77;;;;;;;21.57;53.85;101588.09;4768695;30;20475;-79
2021/09/16 02:33:13;;;;;;;3.25;0.70;;;;;;;21.57;53.81;101583.72;4758698;30;20036;-79
2021/09/16 02:35:38;;;;;;;2.38;0.75;;;;;;;21.56;53.65;101592.47;4759276;30;20056;-78
2021/09/16 02:38:04;;;;;;;2.60;0.80;;;;;;;21.54;53.81;101589.00;4760895;30;20032;-81
2021/09/16 02:40:30;;;;;;;1.23;0.77;;;;;;;21.56;53.32;101600.34;4776707;30;20035;-80
2021/09/16 02:42:57;;;;;;;1.50;0.60;;;;;;;21.56;54.08;101595.09;4758028;30;20067;-80
2021/09/16 02:45:22;;;;;;;3.30;1.00;;;;;;;21.56;53.80;101595.09;4761718;30;20118;-79
2021/09/16 02:47:49;;;;;;;2.35;0.80;;;;;;;21.56;54.15;101602.94;4776891;30;20115;-80
2021/09/16 02:50:15;;;;;;;1.25;0.60;;;;;;;21.57;53.82;101595.94;4778108;30;20058;-78
2021/09/16 02:52:40;;;;;;;1.80;0.73;;;;;;;21.58;53.92;101597.69;4748071;30;20040;-80
2021/09/16 02:55:08;;;;;;;1.88;0.70;;;;;;;21.58;54.10;101597.69;4781194;30;20107;-79
2021/09/16 02:57:33;;;;;;;1.02;0.68;;;;;;;21.56;53.89;101595.09;4782523;30;20111;-79
2021/09/16 03:00:02;;;;;;;2.38;0.90;;;;;;;21.55;54.12;101595.09;4766088;30;20107;-78
2021/09/16 03:02:27;;;;;;;1.50;0.70;;;;;;;21.55;53.85;101600.34;4764459;30;20046;-79
2021/09/16 03:04:53;;;;;;;2.83;0.80;;;;;;;21.56;53.93;101599.47;4750652;30;20040;-78
2021/09/16 03:07:18;;;;;;;3.30;0.60;;;;;;;21.55;53.98;101598.59;4767658;30;20403;-78
2021/09/16 03:09:44;;;;;;;2.58;0.90;;;;;;;21.54;53.72;101604.72;4747390;30;20036;-79
2021/09/16 03:12:10;;;;;;;1.95;0.70;;;;;;;21.54;53.72;101602.09;4777275;30;20040;-80
2021/09/16 03:14:36;;;;;;;2.35;0.70;;;;;;;21.56;54.17;101609.94;4780210;30;20578;-79
2021/09/16 03:17:03;;;;;;;1.35;0.60;;;;;;;21.55;53.93;101606.44;4750827;30;20071;-79
2021/09/16 03:19:30;;;;;;;2.08;0.80;;;;;;;21.55;53.94;101602.97;4765921;30;20054;-79
2021/09/16 03:21:56;;;;;;;3.38;0.80;;;;;;;21.55;54.08;101602.97;4751721;30;20027;-79
2021/09/16 03:24:21;;;;;;;2.33;0.50;;;;;;;21.54;54.01;101614.34;4734257;30;20062;-79
2021/09/16 03:26:47;;;;;;;3.30;1.00;;;;;;;21.54;54.14;101604.72;4769516;30;20047;-79
2021/09/16 03:29:12;;;;;;;1.67;0.70;;;;;;;21.56;53.96;101612.56;4750135;30;20043;-80
2021/09/16 03:31:39;;;;;;;4.80;1.00;;;;;;;21.56;53.58;101616.03;4766725;30;20068;-79
2021/09/16 03:34:04;;;;;;;1.45;0.60;;;;;;;21.54;54.13;101620.44;4783331;30;20051;-79
2021/09/16 03:36:30;;;;;;;2.05;0.70;;;;;;;21.53;54.18;101615.22;4768130;30;20059;-79
2021/09/16 03:38:55;;;;;;;1.58;0.70;;;;;;;21.53;53.86;101610.81;4767350;30;20031;-79
2021/09/16 03:41:20;;;;;;;2.33;0.90;;;;;;;21.55;54.01;101618.69;4767082;30;20086;-79
2021/09/16 03:43:47;;;;;;;2.00;0.73;;;;;;;21.54;54.02;101624.81;4750465;30;20051;-80
2021/09/16 03:46:13;;;;;;;1.17;0.50;;;;;;;21.51;54.10;101622.22;4766074;30;20036;-79
2021/09/16 03:48:38;;;;;;;2.03;0.70;;;;;;;21.52;54.04;101630.06;4777856;30;20439;-79
2021/09/16 03:51:05;;;;;;;1.90;0.70;;;;;;;21.54;54.32;101628.28;4764112;30;20110;-78
2021/09/16 03:53:30;;;;;;;0.88;0.60;;;;;;;21.52;54.37;101635.31;4765609;30;20048;-80
2021/09/16 03:56:03;;;;;;;1.73;0.80;;;;;;;21.52;54.23;101627.44;4746342;30;20036;-78
2021/09/16 03:58:28;;;;;;;2.20;0.52;;;;;;;21.54;53.91;101636.16;4772093;30;20480;-79
2021/09/16 04:00:56;;;;;;;1.38;0.60;;;;;;;21.53;53.99;101629.16;4767160;30;20044;-78
2021/09/16 04:03:23;;;;;;;1.83;0.80;;;;;;;21.53;54.04;101630.91;4751825;30;20032;-78
2021/09/16 04:05:48;;;;;;;1.40;0.60;;;;;;;21.53;53.94;101636.16;4753923;30;20045;-78
2021/09/16 04:08:14;;;;;;;1.65;0.50;;;;;;;21.52;54.09;101629.22;4753684;30;20060;-79
2021/09/16 04:10:39;;;;;;;1.52;0.60;;;;;;;21.51;53.97;101633.59;4754995;30;20039;-80
2021/09/16 04:13:07;;;;;;;1.67;0.65;;;;;;;21.53;54.21;101631.78;4797224;30;20098;-79
2021/09/16 04:15:33;;;;;;;1.00;0.60;;;;;;;21.54;53.92;101632.66;4773064;30;20050;-78
2021/09/16 04:17:58;;;;;;;1.73;0.60;;;;;;;21.52;53.76;101629.22;4787647;30;20031;-79
2021/09/16 04:20:23;;;;;;;1.67;0.70;;;;;;;21.53;53.67;101626.53;4773478;30;20047;-79
2021/09/16 04:22:49;;;;;;;1.63;0.50;;;;;;;21.53;53.75;101636.16;4774134;30;20040;-80
2021/09/16 04:25:15;;;;;;;2.38;0.73;;;;;;;21.52;53.83;101637.06;4759777;30;20039;-79
2021/09/16 04:27:40;;;;;;;1.98;0.68;;;;;;;;;;4787632;30;20115;-78
2021/09/16 04:30:06;;;;;;;2.05;0.63;;;;;;;21.50;53.96;101630.97;4771596;30;20043;-79
2021/09/16 04:32:33;;;;;;;1.30;0.55;;;;;;;21.50;53.92;101641.44;4764335;30;20042;-78
2021/09/16 04:34:58;;;;;;;2.17;0.60;;;;;;;21.51;53.86;101641.44;4781687;30;20062;-76
2021/09/16 04:37:24;;;;;;;2.15;0.60;;;;;;;21.51;53.88;101641.44;4751953;30;20055;-77
2021/09/16 04:39:49;;;;;;;3.58;0.68;;;;;;;21.52;53.79;101642.31;4768314;30;20024;-78
2021/09/16 04:42:15;;;;;;;1.33;0.60;;;;;;;21.52;53.94;101644.91;4741688;30;20036;-78
2021/09/16 04:44:40;;;;;;;2.03;0.70;;;;;;;21.52;54.05;101651.00;4756485;30;20036;-78
2021/09/16 04:47:06;;;;;;;1.80;0.70;;;;;;;21.52;54.16;101650.16;4770916;30;20035;-78
2021/09/16 04:49:31;;;;;;;1.67;0.52;;;;;;;21.51;54.01;101649.28;4741951;30;20036;-78
2021/09/16 04:51:57;;;;;;;2.28;0.68;;;;;;;21.50;54.10;101652.78;4786390;30;20031;-78
2021/09/16 04:54:22;;;;;;;1.27;0.52;;;;;;;21.52;54.08;101650.16;4771752;30;20047;-78
2021/09/16 04:56:47;;;;;;;3.22;0.57;;;;;;;21.52;53.89;101652.78;4741747;30;20108;-79
2021/09/16 04:59:13;;;;;;;1.60;0.70;;;;;;;21.52;54.11;101656.25;4772570;30;20036;-78
2021/09/16 05:01:38;;;;;;;1.40;0.70;;;;;;;21.53;53.63;101651.88;4756547;30;20040;-78
2021/09/16 05:04:08;;;;;;;1.05;0.60;;;;;;;21.52;54.05;101656.25;4786762;30;20070;-80
2021/09/16 05:06:34;;;;;;;0.95;0.47;;;;;;;21.51;53.84;101656.25;4756023;30;20039;-78
2021/09/16 05:08:59;;;;;;;1.85;0.70;;;;;;;21.51;53.58;101657.16;4785917;30;20035;-78
2021/09/16 05:11:25;;;;;;;3.08;0.60;;;;;;;21.47;53.48;101652.84;4768609;30;20059;-78
2021/09/16 05:13:51;;;;;;;1.38;0.70;;;;;;;21.45;53.67;101649.38;4745279;30;20048;-78
2021/09/16 05:16:16;;;;;;;1.27;0.60;;;;;;;21.45;53.69;101654.59;4725008;30;20395;-78
2021/09/16 05:18:42;;;;;;;1.30;0.65;;;;;;;21.46;53.68;101661.56;4768604;30;20483;-77
2021/09/16 05:21:08;;;;;;;5.05;1.10;;;;;;;21.48;53.41;101653.69;4766987;30;20087;-79
2021/09/16 05:23:33;;;;;;;3.42;1.40;;;;;;;21.45;53.61;101659.84;4784718;30;20151;-79
2021/09/16 05:26:00;;;;;;;10.30;1.60;;;;;;;21.44;53.64;101665.94;4739072;30;20039;-78
2021/09/16 05:28:26;;;;;;;5.97;1.50;;;;;;;21.47;53.59;101659.81;4767855;30;20027;-77
2021/09/16 05:31:00;;;;;;;7.15;1.90;;;;;;;21.49;53.75;101661.53;4769908;30;20042;-78
2021/09/16 05:33:26;;;;;;;4.70;1.90;;;;;;;21.50;53.74;101671.13;4784969;30;20028;-77
2021/09/16 05:36:02;;;;;;;5.00;1.60;;;;;;;21.51;53.81;101671.97;4771096;30;20067;-79
2021/09/16 05:38:29;;;;;;;5.80;1.80;;;;;;;21.48;53.74;101669.41;4771100;30;20040;-78
2021/09/16 05:40:56;;;;;;;6.32;1.80;;;;;;;21.50;53.94;101678.97;4787243;30;20036;-78
2021/09/16 05:43:21;;;;;;;3.63;1.30;;;;;;;21.48;53.82;101678.13;4786962;30;20027;-78
2021/09/16 05:45:47;;;;;;;4.97;1.50;;;;;;;21.48;53.33;101685.13;4771235;30;20415;-78
2021/09/16 05:48:13;;;;;;;4.85;1.20;;;;;;;21.47;53.17;101692.13;4756164;30;20047;-79
2021/09/16 05:50:39;;;;;;;5.30;1.40;;;;;;;21.49;52.96;101687.72;4788355;30;20048;-78
2021/09/16 05:53:06;;;;;;;6.68;1.50;;;;;;;21.50;52.93;101692.06;4768779;30;20024;-79
2021/09/16 05:55:38;;;;;;;3.90;1.27;;;;;;;21.49;52.71;101690.34;4780948;30;20644;-78
2021/09/16 05:58:04;;;;;;;2.65;1.35;;;;;;;21.52;52.67;101694.69;4782565;30;20036;-78
2021/09/16 06:00:30;;;;;;;3.58;1.20;;;;;;;21.59;52.62;101695.47;4766910;30;20040;-79
2021/09/16 06:02:55;;;;;;;3.65;1.15;;;;;;;21.60;52.26;101703.31;4767073;30;20042;-77
2021/09/16 06:05:21;;;;;;;5.40;1.50;;;;;;;21.61;52.03;101706.78;4767616;30;20051;-77
2021/09/16 06:07:46;;;;;;;4.47;1.30;;;;;;;21.61;52.28;101712.03;4782468;30;20047;-79
2021/09/16 06:10:12;;;;;;;4.88;1.30;;;;;;;21.62;51.94;101713.75;4767145;30;20055;-79
2021/09/16 06:12:38;;;;;;;4.97;1.30;;;;;;;21.66;52.16;101703.22;4768826;30;20070;-78
2021/09/16 06:15:22;;;;;;;4.03;1.13;;;;;;;21.69;51.39;101712.81;4771725;30;20061;-80
2021/09/16 06:17:48;;;;;;;4.90;1.30;;;;;;;21.80;51.18;101712.63;4768701;30;20035;-79
2021/09/16 06:20:14;;;;;;;3.42;1.30;;;;;;;22.13;50.38;101708.69;4772014;30;20061;-79
2021/09/16 06:22:40;;;;;;;3.55;1.38;;;;;;;22.38;48.83;101711.81;4787890;30;20032;-80
2021/09/16 06:25:07;;;;;;;3.33;1.35;;;;;;;22.42;47.31;101720.53;4773347;30;20095;-80
2021/09/16 06:27:33;;;;;;;5.00;1.38;;;;;;;22.70;46.76;101711.28;4772351;30;20097;-78
2021/09/16 06:29:59;;;;;;;5.57;1.60;;;;;;;22.89;46.02;101716.25;4791004;30;20032;-81
2021/09/16 06:32:25;;;;;;;8.00;1.65;;;;;;;23.32;44.56;101711.06;4763212;30;20139;-79
2021/09/16 06:34:51;;;;;;;6.10;1.58;;;;;;;23.18;45.14;101726.22;4773332;30;20094;-79
2021/09/16 06:37:18;;;;;;;5.95;1.65;;;;;;;22.59;46.68;101726.34;4788848;30;20051;-79
2021/09/16 06:39:43;;;;;;;5.78;1.63;;;;;;;22.66;47.11;101717.47;4759169;30;20020;-80
2021/09/16 06:42:09;;;;;;;4.90;1.70;;;;;;;23.50;44.41;101719.47;4790207;30;20036;-81
2021/09/16 06:44:35;;;;;;;6.72;1.58;;;;;;;23.62;44.09;101721.84;4790679;30;20026;-81
2021/09/16 06:47:01;;;;;;;6.03;1.80;;;;;;;23.03;45.82;101727.38;4761648;30;20100;-81
2021/09/16 06:49:26;;;;;;;5.72;1.48;;;;;;;23.30;45.10;101725.09;4761836;30;20044;-80
2021/09/16 06:51:52;;;;;;;7.25;1.75;;;;;;;23.97;43.03;101718.47;4790551;30;20039;-80
2021/09/16 06:54:17;;;;;;;4.63;1.42;;;;;;;23.61;44.42;101723.59;4770124;30;20463;-76
2021/09/16 06:56:43;;;;;;;4.38;1.63;;;;;;;23.81;43.15;101724.97;4781652;30;20036;-77
2021/09/16 06:59:08;;;;;;;5.32;1.60;;;;;;;23.23;44.29;101720.88;4765934;30;20032;-76
2021/09/16 07:01:44;;;;;;;5.05;1.60;;;;;;;22.56;46.20;101721.19;4749816;30;20035;-76
2021/09/16 07:04:15;;;;;;;7.05;1.52;;;;;;;22.39;46.56;101727.53;4766821;30;20032;-78
2021/09/16 07:06:47;;;;;;;8.20;1.90;;;;;;;23.35;44.13;101728.53;4765570;30;20038;-76
2021/09/16 07:09:16;;;;;;;6.82;1.60;;;;;;;23.94;42.52;101736.94;4768877;30;20038;-79
2021/09/16 07:11:41;;;;;;;4.65;1.63;;;;;;;23.41;43.39;101737.16;4750871;30;20031;-79
2021/09/16 07:14:07;;;;;;;5.30;1.55;;;;;;;23.78;42.87;101739.06;4739109;30;20036;-79
2021/09/16 07:16:33;;;;;;;6.95;1.63;;;;;;;23.95;42.14;101729.91;4785414;30;20034;-79
2021/09/16 07:18:58;;;;;;;5.22;1.60;;;;;;;23.73;42.53;101729.50;4755809;30;20058;-79
2021/09/16 07:21:24;;;;;;;4.32;1.30;;;;;;;23.54;42.71;101737.78;4771035;30;20103;-77
2021/09/16 07:23:49;;;;;;;4.15;1.63;;;;;;;23.68;42.18;101739.25;4757063;30;20099;-79
2021/09/16 07:26:15;;;;;;;5.50;1.40;;;;;;;23.73;41.66;101735.63;4756012;30;20042;-78
2021/09/16 07:28:41;;;;;;;3.40;1.20;;;;;;;23.89;41.51;101740.56;4772937;30;20024;-78
2021/09/16 07:31:06;;;;;;;5.78;1.52;;;;;;;23.94;40.89;101744.84;4772402;30;20036;-78
2021/09/16 07:33:33;;;;;;;6.07;1.65;;;;;;;23.93;40.85;101744.88;4772072;30;20039;-77
2021/09/16 07:35:59;;;;;;;2.60;1.25;;;;;;;24.18;40.29;101750.47;4770663;30;20111;-77
2021/09/16 07:38:24;;;;;;;4.97;1.17;;;;;;;24.03;40.61;101749.03;4784310;30;20031;-79
2021/09/16 07:40:50;;;;;;;4.43;1.20;;;;;;;24.14;40.69;101751.41;4767077;30;20042;-79
2021/09/16 07:43:16;;;;;;;4.72;1.40;;;;;;;24.11;40.73;101748.88;4768054;30;20045;-78
2021/09/16 07:45:41;;;;;;;5.07;1.48;;;;;;;24.14;40.62;101751.41;4767718;30;20086;-78
2021/09/16 07:48:07;;;;;;;5.18;1.30;;;;;;;23.10;43.33;101754.38;4740179;30;20047;-78
2021/09/16 07:50:33;;;;;;;5.72;1.20;;;;;;;22.51;44.64;101751.84;4754699;30;20036;-79
2021/09/16 07:52:58;;;;;;;6.10;1.60;;;;;;;22.57;44.50;101754.38;4739265;30;20044;-78
2021/09/16 07:55:24;;;;;;;4.00;1.38;;;;;;;22.57;44.74;101759.63;4783520;30;20040;-79
2021/09/16 07:57:50;;;;;;;4.38;1.13;;;;;;;22.25;45.58;101763.59;4764071;30;20061;-79
2021/09/16 08:00:19;;;;;;;5.65;1.38;;;;;;;22.01;46.28;101759.53;4765110;30;20031;-79
2021/09/16 08:02:46;;;;;;;6.43;1.30;;;;;;;22.10;46.29;101762.03;4751622;30;20043;-78
2021/09/16 08:05:13;;;;;;;6.63;1.70;;;;;;;21.96;46.46;101780.56;4767179;30;20115;-78
2021/09/16 08:07:38;;;;;;;7.60;1.23;;;;;;;21.86;46.86;101776.34;4768194;30;20040;-78
2021/09/16 08:10:05;;;;;;;3.72;1.08;;;;;;;22.32;45.89;101780.97;4750748;30;20032;-76
2021/09/16 08:12:30;;;;;;;5.75;1.40;;;;;;;22.92;43.30;101784.41;4764651;30;20039;-76
2021/09/16 08:14:56;;;;;;;4.53;1.20;;;;;;;22.71;43.55;101783.00;4748895;30;20032;-76
2021/09/16 08:17:21;;;;;;;4.47;1.30;;;;;;;22.68;43.65;101783.91;4750317;30;20059;-77
2021/09/16 08:19:47;;;;;;;3.78;1.17;;;;;;;22.42;44.48;101788.72;4749251;30;20047;-76
2021/09/16 08:22:12;;;;;;;7.43;1.35;;;;;;;22.31;44.73;101792.34;4779655;30;20036;-76
2021/09/16 08:24:38;;;;;;;5.50;1.10;;;;;;;22.56;44.53;101797.25;4777986;30;20036;-76
2021/09/16 08:27:04;;;;;;;4.07;1.23;;;;;;;22.07;45.72;101792.66;4762037;30;20036;-76
2021/09/16 08:29:31;;;;;;;5.45;1.25;;;;;;;22.32;45.33;101794.09;4764622;30;20035;-76
2021/09/16 08:31:57;;;;;;;5.53;1.30;;;;;;;22.24;45.77;101795.94;4764258;30;20126;-77
2021/09/16 08:34:27;;;;;;;4.15;1.30;;;;;;;22.08;45.89;101797.88;4761563;30;20063;-77
2021/09/16 08:36:54;;;;;;;4.38;1.30;;;;;;;21.79;46.30;101800.84;4774719;30;20063;-77
2021/09/16 08:39:20;;;;;;;4.68;1.13;;;;;;;21.74;46.62;101803.53;4743773;30;20039;-77
2021/09/16 08:41:45;;;;;;;5.40;1.05;;;;;;;21.83;46.29;101801.69;4759042;30;20040;-77
2021/09/16 08:44:11;;;;;;;3.67;1.10;;;;;;;21.94;45.84;101799.81;4745162;30;20043;-76
2021/09/16 08:46:37;;;;;;;5.38;1.30;;;;;;;21.83;46.13;101804.31;4745728;30;20043;-77
2021/09/16 08:49:03;;;;;;;6.38;1.20;;;;;;;21.65;46.20;101805.41;4760602;30;20031;-77
2021/09/16 08:51:30;;;;;;;5.07;1.33;;;;;;;21.55;46.58;101804.63;4760784;30;20035;-77
2021/09/16 08:53:56;;;;;;;3.20;1.20;;;;;;;21.52;46.80;101796.81;4745450;30;20436;-77
2021/09/16 08:56:22;;;;;;;4.90;1.20;;;;;;;21.66;46.29;101796.66;4759426;30;20053;-77
2021/09/16 08:58:48;;;;;;;5.78;1.33;;;;;;;21.72;46.58;101800.06;4763021;30;20513;-77
2021/09/16 09:01:15;;;;;;;3.13;1.13;;;;;;;21.69;46.48;101799.25;4765679;30;20035;-79
2021/09/16 09:03:41;;;;;;;5.47;1.33;;;;;;;21.57;46.56;101798.47;4752083;30;20069;-79
2021/09/16 09:06:27;;;;;;;5.32;1.17;;;;;;;21.61;46.75;101801.09;4780060;30;20088;-76
2021/09/16 09:09:18;;;;;;;3.35;1.40;;;;;;;21.71;46.42;101810.56;4764260;30;20224;-77
2021/09/16 09:12:12;;;;;;;5.32;1.25;;;;;;;21.80;46.31;101814.81;4763329;30;20035;-75
2021/09/16 09:14:39;;;;;;;;;;;;;;;21.84;46.38;101811.28;4762931;30;20443;-77
2021/09/16 09:17:25;;;;;;;6.72;1.38;;;;;;;21.76;46.44;101816.63;4778484;30;20016;-76
2021/09/16 09:19:54;;;;;;;4.25;1.30;;;;;;;21.67;46.91;101817.59;4761336;30;20110;-76
2021/09/16 09:22:31;;;;;;;2.92;1.08;;;;;;;21.70;46.89;101814.06;4777243;30;20044;-76
2021/09/16 09:25:01;;;;;;;5.43;1.52;;;;;;;21.60;47.29;101815.03;4778159;30;20039;-77
2021/09/16 09:27:28;;;;;;;4.68;1.30;;;;;;;21.56;47.52;101809.84;4760372;30;20124;-75
2021/09/16 09:30:09;;;;;;;5.50;1.30;;;;;;;21.43;48.08;101810.88;4777285;30;20062;-78
2021/09/16 09:32:47;;;;;;;2.92;1.10;;;;;;;21.58;47.93;101817.72;4776207;30;20060;-76
2021/09/16 09:35:24;;;;;;;5.30;1.50;;;;;;;21.63;47.56;101812.41;4716187;30;1762120;-78
2021/09/16 09:37:49;;;;;;;3.38;1.48;;;;;;;21.54;47.83;101813.38;4779803;30;20050;-77
2021/09/16 09:40:23;;;;;;;3.63;1.10;;;;;;;21.47;47.99;101814.31;4746515;30;20114;-77
2021/09/16 09:42:49;;;;;;;4.30;1.38;;;;;;;21.52;47.58;101816.00;4759204;30;20038;-75
2021/09/16 09:45:14;;;;;;;6.13;1.15;;;;;;;21.47;47.70;101809.06;4775366;30;20035;-76
2021/09/16 09:47:40;;;;;;;6.82;1.48;;;;;;;21.42;47.75;101814.34;4759305;30;20031;-76
2021/09/16 09:50:25;;;;;;;3.78;1.27;;;;;;;21.44;48.03;101815.22;4760639;30;20083;-76
2021/09/16 09:52:53;;;;;;;3.63;1.10;;;;;;;21.42;47.77;101816.13;4760305;30;20034;-77
2021/09/16 09:55:24;;;;;;;4.18;1.30;;;;;;;21.41;47.79;101816.97;4775207;30;20031;-75
2021/09/16 09:58:02;;;;;;;4.05;1.27;;;;;;;21.40;47.96;101817.84;4759069;30;20036;-75
2021/09/16 10:00:27;;;;;;;6.38;1.20;;;;;;;21.36;48.22;101828.38;4758253;30;20634;-75
2021/09/16 10:02:54;;;;;;;7.57;1.30;;;;;;;21.44;47.95;101825.69;4758828;30;20056;-77
2021/09/16 10:05:30;;;;;;;5.72;1.75;;;;;;;21.45;48.01;101830.06;4743447;30;20107;-74
2021/09/16 10:08:10;;;;;;;3.92;1.38;;;;;;;21.44;47.89;101825.69;4758641;30;20032;-76
2021/09/16 10:10:37;;;;;;;6.15;1.45;;;;;;;21.44;48.18;101828.31;4757961;30;20438;-76
2021/09/16 10:13:03;;;;;;;3.90;1.23;;;;;;;21.44;47.93;101830.94;4773936;30;20035;-76
2021/09/16 10:15:28;;;;;;;3.58;1.30;;;;;;;21.45;48.04;101837.03;4744197;30;20032;-77
2021/09/16 10:17:54;;;;;;;3.15;1.15;;;;;;;21.43;48.21;101830.97;4744614;30;20031;-75
2021/09/16 10:20:23;;;;;;;2.53;0.93;;;;;;;21.41;48.04;101837.94;4776182;30;20097;-75
2021/09/16 10:22:52;;;;;;;4.32;1.40;;;;;;;21.46;47.87;101837.00;4763355;30;20036;-78
2021/09/16 10:25:21;;;;;;;3.47;1.33;;;;;;;21.48;48.19;101832.63;4763933;30;20050;-76
2021/09/16 10:27:55;;;;;;;4.50;1.30;;;;;;;21.54;48.08;101835.19;4762340;30;20032;-78
2021/09/16 10:30:23;;;;;;;4.68;1.20;;;;;;;21.61;47.84;101838.63;4778807;30;20032;-78
2021/09/16 10:33:05;;;;;;;2.28;1.20;;;;;;;21.63;48.16;101833.38;4762556;30;20035;-78
2021/09/16 10:35:32;;;;;;;2.85;1.20;;;;;;;21.63;47.98;101829.00;4764917;30;20184;-77
2021/09/16 10:38:16;;;;;;;7.18;1.75;;;;;;;21.61;47.90;101822.91;4775793;30;20098;-75
2021/09/16 10:40:42;;;;;;;3.78;1.20;;;;;;;21.66;48.27;101821.09;4757846;30;20035;-75
2021/09/16 10:43:08;;;;;;;3.97;1.25;;;;;;;21.70;48.04;101832.41;4745146;30;20119;-75
2021/09/16 10:45:37;;;;;;;3.63;1.20;;;;;;;21.73;48.05;101838.50;4759659;30;20060;-75
2021/09/16 10:48:15;;;;;;;4.10;1.10;;;;;;;21.75;48.16;101831.50;4774935;30;20040;-75
2021/09/16 10:50:50;;;;;;;3.72;1.08;;;;;;;21.73;48.26;101827.13;4773114;30;20092;-75
2021/09/16 10:53:36;;;;;;;3.13;1.20;;;;;;;21.76;47.96;101838.44;4757446;30;20445;-75
2021/09/16 10:56:06;;;;;;;5.25;1.20;;;;;;;21.77;48.11;101828.81;4756963;30;20302;-75
2021/09/16 10:58:33;;;;;;;3.78;1.20;;;;;;;21.78;48.12;101839.28;4756625;30;20038;-76
2021/09/16 11:00:58;;;;;;;3.75;1.13;;;;;;;21.81;48.11;101853.25;4756194;30;20081;-75
2021/09/16 11:03:24;;;;;;;4.00;1.02;;;;;;;21.88;48.05;101847.03;4728652;30;20492;-76
2021/09/16 11:05:55;;;;;;;5.70;1.15;;;;;;;21.91;47.95;101842.66;4760290;30;20035;-77
2021/09/16 11:08:42;;;;;;;3.20;1.17;;;;;;;21.94;47.67;101850.47;4760497;30;20058;-78
2021/09/16 11:11:08;;;;;;;2.08;1.00;;;;;;;21.93;47.71;101843.50;4760457;30;20036;-77
2021/09/16 11:13:36;;;;;;;3.92;1.02;;;;;;;21.90;47.98;101845.28;4746001;30;20051;-76
2021/09/16 11:16:03;;;;;;;3.42;1.13;;;;;;;21.91;47.93;101847.88;4775924;30;20612;-78
2021/09/16 11:18:28;;;;;;;3.20;1.10;;;;;;;21.87;48.17;101845.31;4761100;30;20035;-78
2021/09/16 11:20:57;;;;;;;4.40;1.33;;;;;;;21.81;48.38;101834.91;4745169;30;20042;-80
2021/09/16 11:23:37;;;;;;;5.70;1.20;;;;;;;21.82;48.18;101844.50;4759301;30;20122;-79
2021/09/16 11:26:03;;;;;;;3.03;1.00;;;;;;;21.78;48.31;101841.06;4760353;30;20572;-79
2021/09/16 11:28:28;;;;;;;2.78;1.23;;;;;;;21.82;48.34;101849.72;4760034;30;20039;-78